createdAt,value
2019-05-30T00:01:58.621Z,92.70
2019-05-30T00:04:29.343Z,93.40
2019-05-30T00:07:00.514Z,94.20
2019-05-30T00:09:31.009Z,94.80
2019-05-30T00:12:02.950Z,94.90
2019-05-30T00:14:33.579Z,95.70
2019-05-30T00:17:05.122Z,96.40
2019-05-30T00:19:35.875Z,96.70
2019-05-30T00:22:06.773Z,96.50
2019-05-30T00:24:37.209Z,97.20
2019-05-30T00:27:07.635Z,97.60
2019-05-30T00:29:38.052Z,98.00
2019-05-30T00:32:08.862Z,98.00
2019-05-30T00:34:39.305Z,97.90
2019-05-30T00:37:09.816Z,98.10
2019-05-30T00:39:40.242Z,98.30
2019-05-30T00:42:10.742Z,98.30
2019-05-30T00:44:41.328Z,98.30
2019-05-30T00:47:11.745Z,98.30
2019-05-30T00:49:42.383Z,98.70
2019-05-30T00:52:12.783Z,98.70
2019-05-30T00:54:43.342Z,98.70
2019-05-30T00:57:13.852Z,98.60
2019-05-30T00:59:44.333Z,99.00
2019-05-30T01:02:14.796Z,98.90
2019-05-30T01:04:45.376Z,98.70
2019-05-30T01:07:15.865Z,98.70
2019-05-30T01:09:46.621Z,98.60
2019-05-30T01:12:17.073Z,98.70
2019-05-30T01:14:47.569Z,98.80
2019-05-30T01:17:18.559Z,99.00
2019-05-30T01:19:49.024Z,99.00
2019-05-30T01:22:19.478Z,99.10
2019-05-30T01:24:50.215Z,99.40
2019-05-30T01:27:20.750Z,99.20
2019-05-30T01:29:51.285Z,99.30
2019-05-30T01:32:28.494Z,99.40
2019-05-30T01:34:59.926Z,99.40
2019-05-30T01:37:30.648Z,99.30
2019-05-30T01:40:01.894Z,99.60
2019-05-30T01:42:32.965Z,99.70
2019-05-30T01:45:04.239Z,99.80
2019-05-30T01:47:34.720Z,99.90
2019-05-30T01:50:06.496Z,99.90
2019-05-30T01:52:36.995Z,99.90
2019-05-30T01:55:08.985Z,99.90
2019-05-30T01:57:39.781Z,99.90
2019-05-30T02:00:20.619Z,99.90
2019-05-30T02:02:44.440Z,99.90
2019-05-30T02:05:16.967Z,99.90
2019-05-30T02:07:47.427Z,99.90
2019-05-30T02:10:18.308Z,99.90
2019-05-30T02:12:48.755Z,99.90
2019-05-30T02:15:19.429Z,99.90
2019-05-30T02:17:49.887Z,99.90
2019-05-30T02:20:20.381Z,99.90
2019-05-30T02:22:50.839Z,99.90
2019-05-30T02:25:21.305Z,99.90
2019-05-30T02:27:51.758Z,99.90
2019-05-30T02:30:22.587Z,99.90
2019-05-30T02:32:53.062Z,99.90
2019-05-30T02:35:23.503Z,99.90
2019-05-30T02:37:53.947Z,99.90
2019-05-30T02:40:25.381Z,99.90
2019-05-30T02:42:55.825Z,99.90
2019-05-30T02:45:26.338Z,99.90
2019-05-30T02:47:57.359Z,99.90
2019-05-30T02:50:27.876Z,99.90
2019-05-30T02:52:58.359Z,99.90
2019-05-30T02:55:28.848Z,99.90
2019-05-30T02:57:59.302Z,99.90
2019-05-30T03:00:38.989Z,99.90
2019-05-30T03:03:13.935Z,99.90
2019-05-30T03:05:42.267Z,99.90
2019-05-30T03:08:14.435Z,99.90
2019-05-30T03:10:45.487Z,99.90
2019-05-30T03:13:16.110Z,99.90
2019-05-30T03:15:46.981Z,99.90
2019-05-30T03:18:17.906Z,99.90
2019-05-30T03:20:48.625Z,99.90
2019-05-30T03:23:25.709Z,99.90
2019-05-30T03:25:56.185Z,99.90
2019-05-30T03:28:26.656Z,99.90
2019-05-30T03:30:58.761Z,99.90
2019-05-30T03:33:39.027Z,99.90
2019-05-30T03:36:04.923Z,99.90
2019-05-30T03:38:33.649Z,99.90
2019-05-30T03:41:04.814Z,99.90
2019-05-30T03:43:36.377Z,99.90
2019-05-30T03:46:13.201Z,99.90
2019-05-30T03:48:48.435Z,99.90
2019-05-30T03:51:22.060Z,99.90
2019-05-30T03:53:53.319Z,99.90
2019-05-30T03:56:32.237Z,99.90
2019-05-30T03:59:20.248Z,99.90
2019-05-30T04:02:19.205Z,99.90
2019-05-30T04:04:57.549Z,99.90
2019-05-30T04:07:32.464Z,99.90
2019-05-30T04:10:07.320Z,99.90
2019-05-30T04:13:12.751Z,99.90
2019-05-30T04:15:44.062Z,99.90
2019-05-30T04:18:16.299Z,99.90
2019-05-30T04:20:47.436Z,99.90
2019-05-30T04:23:19.510Z,99.90
2019-05-30T04:25:50.084Z,99.90
2019-05-30T04:28:20.570Z,99.90
2019-05-30T04:30:51.060Z,99.90
2019-05-30T04:33:32.408Z,99.90
2019-05-30T04:35:53.691Z,99.90
2019-05-30T04:38:24.123Z,99.90
2019-05-30T04:40:55.019Z,99.90
2019-05-30T04:43:26.166Z,99.90
2019-05-30T04:45:56.694Z,99.90
2019-05-30T04:48:27.192Z,99.90
2019-05-30T04:50:57.617Z,99.90
2019-05-30T04:53:28.100Z,99.90
2019-05-30T04:55:58.621Z,99.90
2019-05-30T04:58:29.196Z,99.90
2019-05-30T05:00:59.798Z,99.90
2019-05-30T05:03:45.258Z,99.90
2019-05-30T05:06:02.612Z,99.90
2019-05-30T05:08:33.138Z,99.90
2019-05-30T05:11:03.610Z,99.90
2019-05-30T05:13:34.391Z,99.90
2019-05-30T05:16:21.938Z,99.90
2019-05-30T05:18:37.263Z,99.90
2019-05-30T05:21:07.690Z,99.90
2019-05-30T05:23:38.196Z,99.90
2019-05-30T05:26:08.625Z,99.90
2019-05-30T05:28:39.195Z,99.90
2019-05-30T05:31:09.692Z,99.90
2019-05-30T05:33:55.468Z,99.90
2019-05-30T05:36:12.509Z,99.90
2019-05-30T05:38:43.019Z,99.90
2019-05-30T05:41:13.513Z,99.90
2019-05-30T05:43:43.954Z,99.90
2019-05-30T05:46:14.451Z,99.90
2019-05-30T05:48:44.955Z,99.90
2019-05-30T05:51:16.486Z,99.90
2019-05-30T05:53:47.067Z,99.90
2019-05-30T05:56:18.726Z,99.90
2019-05-30T05:58:49.526Z,99.90
2019-05-30T06:01:21.390Z,99.90
2019-05-30T06:03:52.071Z,99.90
2019-05-30T06:06:23.435Z,99.90
2019-05-30T06:08:54.176Z,99.90
2019-05-30T06:11:24.710Z,99.90
2019-05-30T06:13:55.158Z,99.90
2019-05-30T06:16:26.166Z,99.90
2019-05-30T06:18:56.707Z,99.90
2019-05-30T06:21:27.594Z,99.90
2019-05-30T06:23:58.048Z,99.90
2019-05-30T06:26:28.519Z,99.90
2019-05-30T06:28:58.923Z,99.90
2019-05-30T06:31:32.683Z,99.90
2019-05-30T06:34:03.172Z,99.90
2019-05-30T06:36:33.695Z,99.90
2019-05-30T06:39:06.089Z,99.90
2019-05-30T06:41:37.046Z,99.90
2019-05-30T06:44:07.521Z,99.90
2019-05-30T06:46:38.019Z,99.90
2019-05-30T06:49:08.482Z,99.90
2019-05-30T06:51:38.975Z,99.90
2019-05-30T06:54:09.425Z,99.90
2019-05-30T06:56:40.073Z,99.90
2019-05-30T06:59:10.545Z,99.90
2019-05-30T07:01:41.011Z,99.90
2019-05-30T07:04:11.941Z,99.90
2019-05-30T07:06:42.778Z,99.90
2019-05-30T07:09:13.327Z,99.90
2019-05-30T07:11:43.793Z,99.90
2019-05-30T07:14:14.268Z,99.90
2019-05-30T07:16:45.093Z,99.90
2019-05-30T07:19:15.621Z,99.90
2019-05-30T07:21:46.054Z,99.90
2019-05-30T07:24:16.486Z,99.90
2019-05-30T07:26:47.419Z,99.90
2019-05-30T07:29:17.920Z,99.90
2019-05-30T07:31:48.419Z,99.90
2019-05-30T07:34:18.959Z,99.90
2019-05-30T07:36:49.524Z,99.90
2019-05-30T07:39:20.014Z,99.90
2019-05-30T07:42:05.311Z,99.90
2019-05-30T07:44:23.239Z,99.90
2019-05-30T07:46:53.682Z,99.90
2019-05-30T07:49:24.495Z,99.90
2019-05-30T07:51:55.124Z,99.90
2019-05-30T07:54:26.840Z,99.90
2019-05-30T07:56:57.472Z,99.90
2019-05-30T07:59:28.273Z,99.90
2019-05-30T08:02:06.637Z,99.90
2019-05-30T08:04:37.855Z,99.90
2019-05-30T08:07:08.473Z,99.90
2019-05-30T08:09:39.305Z,99.90
2019-05-30T08:12:10.254Z,99.90
2019-05-30T08:14:41.210Z,99.90
2019-05-30T08:17:11.711Z,99.90
2019-05-30T08:19:42.588Z,99.90
2019-05-30T08:22:13.054Z,99.90
2019-05-30T08:24:45.366Z,99.90
2019-05-30T08:27:15.924Z,99.90
2019-05-30T08:29:47.975Z,99.90
2019-05-30T08:32:19.067Z,99.90
2019-05-30T08:34:50.896Z,99.90
2019-05-30T08:37:21.634Z,99.90
2019-05-30T08:39:53.587Z,99.90
2019-05-30T08:42:27.787Z,99.90
2019-05-30T08:44:57.598Z,99.90
2019-05-30T08:47:28.180Z,99.90
2019-05-30T08:49:58.598Z,99.90
2019-05-30T08:52:30.358Z,99.90
2019-05-30T08:55:00.959Z,99.90
2019-05-30T08:57:32.350Z,99.90
2019-05-30T09:00:02.895Z,99.90
2019-05-30T09:02:34.161Z,99.90
2019-05-30T09:05:07.023Z,99.90
2019-05-30T09:07:38.307Z,99.90
2019-05-30T09:10:10.263Z,99.90
2019-05-30T09:12:45.231Z,99.90
2019-05-30T09:15:14.613Z,99.90
2019-05-30T09:17:46.754Z,99.90
2019-05-30T09:20:18.204Z,99.70
2019-05-30T09:22:48.724Z,99.90
2019-05-30T09:25:21.415Z,99.90
2019-05-30T09:27:51.996Z,99.90
2019-05-30T09:30:23.790Z,99.80
2019-05-30T09:32:54.280Z,99.40
2019-05-30T09:35:24.994Z,99.40
2019-05-30T09:37:55.450Z,99.30
2019-05-30T09:40:26.461Z,99.00
2019-05-30T09:42:56.924Z,98.90
2019-05-30T09:45:27.652Z,99.00
2019-05-30T09:47:58.095Z,99.00
2019-05-30T09:50:28.582Z,98.60
2019-05-30T09:52:59.124Z,98.70
2019-05-30T09:55:29.797Z,98.80
2019-05-30T09:58:01.040Z,98.30
2019-05-30T10:00:33.844Z,98.20
2019-05-30T10:03:05.730Z,98.00
2019-05-30T10:05:36.231Z,98.00
2019-05-30T10:08:06.909Z,98.00
2019-05-30T10:10:37.353Z,98.10
2019-05-30T10:13:07.807Z,98.30
2019-05-30T10:15:38.389Z,98.50
2019-05-30T10:18:08.853Z,98.20
2019-05-30T10:20:39.401Z,97.80
2019-05-30T10:23:09.966Z,97.00
2019-05-30T10:25:40.465Z,97.10
2019-05-30T10:28:11.001Z,97.50
2019-05-30T10:30:41.409Z,97.20
2019-05-30T10:33:11.934Z,97.00
2019-05-30T10:35:42.411Z,96.90
2019-05-30T10:38:12.936Z,96.90
2019-05-30T10:40:43.428Z,97.00
2019-05-30T10:43:13.911Z,96.70
2019-05-30T10:45:44.849Z,97.10
2019-05-30T10:48:19.924Z,96.80
2019-05-30T10:50:50.426Z,97.00
2019-05-30T10:53:21.470Z,97.10
2019-05-30T10:55:53.608Z,97.00
2019-05-30T10:58:24.245Z,97.00
2019-05-30T11:00:57.879Z,97.00
2019-05-30T11:03:29.501Z,96.70
2019-05-30T11:06:25.725Z,96.50
2019-05-30T11:09:00.344Z,96.30
2019-05-30T11:11:31.051Z,95.60
2019-05-30T11:14:01.555Z,95.10
2019-05-30T11:16:32.054Z,95.40
2019-05-30T11:19:07.464Z,95.40
2019-05-30T11:21:36.034Z,94.70
2019-05-30T11:24:06.837Z,94.30
2019-05-30T11:26:37.329Z,93.90
2019-05-30T11:29:07.813Z,93.90
2019-05-30T11:31:38.473Z,93.70
2019-05-30T11:34:08.916Z,94.00
2019-05-30T11:36:40.039Z,93.00
2019-05-30T11:39:11.344Z,92.60
2019-05-30T11:41:41.868Z,92.10
2019-05-30T11:44:12.449Z,91.60
2019-05-30T11:46:43.149Z,91.80
2019-05-30T11:49:13.722Z,92.40
2019-05-30T11:51:44.264Z,92.20
2019-05-30T11:54:14.880Z,91.60
2019-05-30T11:56:45.349Z,90.30
2019-05-30T11:59:15.930Z,88.30
2019-05-30T12:01:46.610Z,90.10
2019-05-30T12:04:17.074Z,86.90
2019-05-30T12:06:47.684Z,83.50
2019-05-30T12:09:18.361Z,83.40
2019-05-30T12:11:49.224Z,82.50
2019-05-30T12:14:21.442Z,82.40
2019-05-30T12:16:53.193Z,81.90
2019-05-30T12:19:23.763Z,79.60
2019-05-30T12:21:55.534Z,80.80
2019-05-30T12:24:26.146Z,80.50
2019-05-30T12:26:58.018Z,80.20
2019-05-30T12:29:28.553Z,78.20
2019-05-30T12:32:00.659Z,79.70
2019-05-30T12:34:31.353Z,79.10
2019-05-30T12:37:02.803Z,78.20
2019-05-30T12:39:33.578Z,78.00
2019-05-30T12:42:04.194Z,77.70
2019-05-30T12:44:34.930Z,76.60
2019-05-30T12:47:05.606Z,77.70
2019-05-30T12:49:36.144Z,78.10
2019-05-30T12:52:06.721Z,77.50
2019-05-30T12:54:37.209Z,79.70
2019-05-30T12:57:07.731Z,78.60
2019-05-30T12:59:38.206Z,79.00
2019-05-30T13:02:08.948Z,77.00
2019-05-30T13:04:39.461Z,76.50
2019-05-30T13:07:10.168Z,76.60
2019-05-30T13:09:40.694Z,75.80
2019-05-30T13:12:11.295Z,74.20
2019-05-30T13:14:42.945Z,73.60
2019-05-30T13:17:13.993Z,73.30
2019-05-30T13:19:44.648Z,72.40
2019-05-30T13:22:15.286Z,71.10
2019-05-30T13:24:46.253Z,70.30
2019-05-30T13:27:17.227Z,70.00
2019-05-30T13:29:47.813Z,69.10
2019-05-30T13:32:18.329Z,67.80
2019-05-30T13:34:49.504Z,68.90
2019-05-30T13:37:20.110Z,67.90
2019-05-30T13:39:50.632Z,69.00
2019-05-30T13:42:21.125Z,69.30
2019-05-30T13:44:52.099Z,67.00
2019-05-30T13:47:22.708Z,68.90
2019-05-30T13:49:53.165Z,70.40
2019-05-30T13:52:23.979Z,68.90
2019-05-30T13:54:54.681Z,69.00
2019-05-30T13:57:25.132Z,68.10
2019-05-30T13:59:55.644Z,67.00
2019-05-30T14:02:26.097Z,66.40
2019-05-30T14:04:56.738Z,66.30
2019-05-30T14:07:27.337Z,66.60
2019-05-30T14:09:58.076Z,66.00
2019-05-30T14:12:28.571Z,67.10
2019-05-30T14:14:59.120Z,68.10
2019-05-30T14:17:29.661Z,68.10
2019-05-30T14:20:00.801Z,66.20
2019-05-30T14:22:31.385Z,64.70
2019-05-30T14:25:01.899Z,66.60
2019-05-30T14:27:33.574Z,65.30
2019-05-30T14:30:04.670Z,64.20
2019-05-30T14:32:35.097Z,62.80
2019-05-30T14:35:06.409Z,62.10
2019-05-30T14:37:36.965Z,60.80
2019-05-30T14:40:09.221Z,61.40
2019-05-30T14:42:39.781Z,61.50
2019-05-30T14:45:12.410Z,61.40
2019-05-30T14:47:43.324Z,59.80
2019-05-30T14:50:15.078Z,60.90
2019-05-30T14:52:45.534Z,60.50
2019-05-30T14:55:17.351Z,58.90
2019-05-30T14:57:48.836Z,57.70
2019-05-30T15:00:20.989Z,58.50
2019-05-30T15:02:51.492Z,55.70
2019-05-30T15:05:22.047Z,57.00
2019-05-30T15:07:52.709Z,59.00
2019-05-30T15:10:23.257Z,58.20
2019-05-30T15:12:53.796Z,58.80
2019-05-30T15:15:24.497Z,58.10
2019-05-30T15:17:55.041Z,58.50
2019-05-30T15:20:25.909Z,58.10
2019-05-30T15:22:56.383Z,58.20
2019-05-30T15:25:27.041Z,58.40
2019-05-30T15:27:57.485Z,59.20
2019-05-30T15:30:28.024Z,59.70
2019-05-30T15:32:59.788Z,60.90
2019-05-30T15:35:30.346Z,61.20
2019-05-30T15:38:00.841Z,61.80
2019-05-30T15:40:31.318Z,60.90
2019-05-30T15:43:01.789Z,60.40
2019-05-30T15:45:32.263Z,60.20
2019-05-30T15:48:02.904Z,60.80
2019-05-30T15:50:34.135Z,59.60
2019-05-30T15:53:04.723Z,60.20
2019-05-30T15:55:35.289Z,60.70
2019-05-30T15:58:05.882Z,60.90
2019-05-30T16:00:37.155Z,60.90
2019-05-30T16:03:08.211Z,59.80
2019-05-30T16:05:39.901Z,60.70
2019-05-30T16:08:10.697Z,60.30
2019-05-30T16:10:41.377Z,60.50
2019-05-30T16:13:13.178Z,60.00
2019-05-30T16:15:44.592Z,60.30
2019-05-30T16:18:15.702Z,61.30
2019-05-30T16:20:46.267Z,60.80
2019-05-30T16:23:16.973Z,62.30
2019-05-30T16:25:47.734Z,62.60
2019-05-30T16:28:18.340Z,63.00
2019-05-30T16:30:48.957Z,63.70
2019-05-30T16:33:20.132Z,64.60
2019-05-30T16:35:50.974Z,64.50
2019-05-30T16:38:22.216Z,64.60
2019-05-30T16:40:52.809Z,64.90
2019-05-30T16:43:23.750Z,65.60
2019-05-30T16:45:54.450Z,65.20
2019-05-30T16:48:24.996Z,65.70
2019-05-30T16:50:55.903Z,66.10
2019-05-30T16:53:27.396Z,66.30
2019-05-30T16:55:59.838Z,66.50
2019-05-30T16:58:30.518Z,67.30
2019-05-30T17:01:01.857Z,67.60
2019-05-30T17:03:32.347Z,67.40
2019-05-30T17:06:02.952Z,67.30
2019-05-30T17:08:35.939Z,67.40
2019-05-30T17:11:05.789Z,67.80
2019-05-30T17:13:36.319Z,68.00
2019-05-30T17:16:06.880Z,68.50
2019-05-30T17:18:37.360Z,69.00
2019-05-30T17:21:08.018Z,68.90
2019-05-30T17:23:38.681Z,68.50
2019-05-30T17:26:09.123Z,68.90
2019-05-30T17:28:39.781Z,69.40
2019-05-30T17:31:10.374Z,70.20
2019-05-30T17:33:41.023Z,70.20
2019-05-30T17:36:11.496Z,70.60
2019-05-30T17:38:42.202Z,70.00
2019-05-30T17:41:12.664Z,69.90
2019-05-30T17:43:43.656Z,70.20
2019-05-30T17:46:14.200Z,70.50
2019-05-30T17:48:44.725Z,70.00
2019-05-30T17:51:15.658Z,69.80
2019-05-30T17:53:46.662Z,69.90
2019-05-30T17:56:17.110Z,70.00
2019-05-30T17:58:47.676Z,70.50
2019-05-30T18:01:18.268Z,70.20
2019-05-30T18:03:48.778Z,70.50
2019-05-30T18:06:20.301Z,71.10
2019-05-30T18:08:51.176Z,70.50
2019-05-30T18:11:22.846Z,70.80
2019-05-30T18:13:53.522Z,71.10
2019-05-30T18:16:25.157Z,71.50
2019-05-30T18:18:55.855Z,71.00
2019-05-30T18:21:29.487Z,71.10
2019-05-30T18:24:00.253Z,71.60
2019-05-30T18:26:31.910Z,71.90
2019-05-30T18:29:06.204Z,71.80
2019-05-30T18:31:36.884Z,72.10
2019-05-30T18:34:07.331Z,71.90
2019-05-30T18:36:37.832Z,71.90
2019-05-30T18:39:09.108Z,72.10
2019-05-30T18:41:39.627Z,72.00
2019-05-30T18:44:10.278Z,72.40
2019-05-30T18:46:41.080Z,72.50
2019-05-30T18:49:11.623Z,72.70
2019-05-30T18:51:42.321Z,72.40
2019-05-30T18:54:12.880Z,72.40
2019-05-30T18:56:43.432Z,72.30
2019-05-30T18:59:13.988Z,72.90
2019-05-30T19:01:45.615Z,72.90
2019-05-30T19:04:19.023Z,72.80
2019-05-30T19:06:49.695Z,72.50
2019-05-30T19:09:21.631Z,72.30
2019-05-30T19:11:52.556Z,72.30
2019-05-30T19:14:23.096Z,72.70
2019-05-30T19:16:53.605Z,72.30
2019-05-30T19:19:25.803Z,72.40
2019-05-30T19:21:56.493Z,73.40
2019-05-30T19:24:28.057Z,72.90
2019-05-30T19:26:58.853Z,72.80
2019-05-30T19:29:30.973Z,73.00
2019-05-30T19:32:01.673Z,73.20
2019-05-30T19:34:32.803Z,72.90
2019-05-30T19:37:03.300Z,73.20
2019-05-30T19:39:33.745Z,73.10
2019-05-30T19:42:04.306Z,73.10
2019-05-30T19:44:39.310Z,73.00
2019-05-30T19:47:07.072Z,73.50
2019-05-30T19:49:38.704Z,73.40
2019-05-30T19:52:09.183Z,73.40
2019-05-30T19:54:39.773Z,73.30
2019-05-30T19:57:10.496Z,73.50
2019-05-30T19:59:41.185Z,73.50
2019-05-30T20:02:12.018Z,73.50
2019-05-30T20:04:42.814Z,73.80
2019-05-30T20:07:13.448Z,73.30
2019-05-30T20:09:44.034Z,73.70
2019-05-30T20:12:14.783Z,73.30
2019-05-30T20:14:45.500Z,73.20
2019-05-30T20:17:16.665Z,73.50
2019-05-30T20:19:50.234Z,73.70
2019-05-30T20:22:20.943Z,73.50
2019-05-30T20:24:52.092Z,74.00
2019-05-30T20:27:23.028Z,74.10
2019-05-30T20:29:54.424Z,74.30
2019-05-30T20:32:26.960Z,74.30
2019-05-30T20:35:00.470Z,74.30
2019-05-30T20:37:31.461Z,74.90
2019-05-30T20:40:02.386Z,74.90
2019-05-30T20:42:33.016Z,75.40
2019-05-30T20:45:05.694Z,75.40
2019-05-30T20:47:37.605Z,75.40
2019-05-30T20:50:09.355Z,75.80
2019-05-30T20:52:42.258Z,75.70
2019-05-30T20:55:14.121Z,75.90
2019-05-30T20:57:44.625Z,76.30
2019-05-30T21:00:18.152Z,76.20
2019-05-30T21:02:48.906Z,76.40
2019-05-30T21:05:19.581Z,76.80
2019-05-30T21:07:52.111Z,76.70
2019-05-30T21:10:22.852Z,76.90
2019-05-30T21:12:54.716Z,77.20
2019-05-30T21:15:25.789Z,77.30
2019-05-30T21:17:59.515Z,77.50
2019-05-30T21:20:30.686Z,77.60
2019-05-30T21:23:04.101Z,77.80
2019-05-30T21:25:35.830Z,77.60
2019-05-30T21:28:07.029Z,77.80
2019-05-30T21:30:38.762Z,77.80
2019-05-30T21:33:09.976Z,78.50
2019-05-30T21:35:41.892Z,78.40
2019-05-30T21:38:12.981Z,78.60
2019-05-30T21:40:44.461Z,79.40
2019-05-30T21:43:15.443Z,79.00
2019-05-30T21:45:46.870Z,79.30
2019-05-30T21:48:17.436Z,79.20
2019-05-30T21:50:49.156Z,79.50
2019-05-30T21:53:20.107Z,79.80
2019-05-30T21:55:50.728Z,80.30
2019-05-30T21:58:21.356Z,80.70
2019-05-30T22:01:32.803Z,80.70
2019-05-30T22:04:03.772Z,81.30
2019-05-30T22:06:36.239Z,81.30
2019-05-30T22:09:12.521Z,81.40
2019-05-30T22:11:43.689Z,81.80
2019-05-30T22:14:14.417Z,82.20
2019-05-30T22:16:45.923Z,82.50
2019-05-30T22:19:17.157Z,82.70
2019-05-30T22:21:48.092Z,82.60
2019-05-30T22:24:18.661Z,83.20
2019-05-30T22:26:50.623Z,83.50
2019-05-30T22:29:21.294Z,83.90
2019-05-30T22:31:53.549Z,84.20
2019-05-30T22:34:24.285Z,84.50
2019-05-30T22:36:54.939Z,84.80
2019-05-30T22:39:25.465Z,85.20
2019-05-30T22:41:59.191Z,85.30
2019-05-30T22:44:30.009Z,85.20
2019-05-30T22:47:00.546Z,85.60
2019-05-30T22:49:31.303Z,85.90
2019-05-30T22:52:01.869Z,85.90
2019-05-30T22:54:32.420Z,86.20
2019-05-30T22:57:03.235Z,86.50
2019-05-30T22:59:35.960Z,86.60
2019-05-30T23:02:06.607Z,87.10
2019-05-30T23:04:37.207Z,87.30
2019-05-30T23:07:07.932Z,87.50
2019-05-30T23:09:39.455Z,88.50
2019-05-30T23:12:09.933Z,87.70
2019-05-30T23:14:40.776Z,87.90
2019-05-30T23:17:11.783Z,88.30
2019-05-30T23:19:44.033Z,88.80
2019-05-30T23:22:15.061Z,88.90
2019-05-30T23:24:47.078Z,89.30
2019-05-30T23:27:17.919Z,89.50
2019-05-30T23:29:49.626Z,89.70
2019-05-30T23:32:20.407Z,89.80
2019-05-30T23:34:52.170Z,90.00
2019-05-30T23:37:22.983Z,90.00
2019-05-30T23:39:54.908Z,90.10
2019-05-30T23:42:25.796Z,90.00
2019-05-30T23:44:57.553Z,90.20
2019-05-30T23:47:28.280Z,90.30
2019-05-30T23:50:00.217Z,90.50
2019-05-30T23:52:30.912Z,90.70
2019-05-30T23:55:02.299Z,90.60
2019-05-30T23:57:33.029Z,90.60
